createdAt,value
2022-10-17T00:01:01.403Z,78.73
2022-10-17T00:03:36.068Z,79.23
2022-10-17T00:06:15.443Z,79.26
2022-10-17T00:08:44.123Z,79.02
2022-10-17T00:11:18.684Z,79.44
2022-10-17T00:13:47.793Z,78.84
2022-10-17T00:16:22.697Z,78.73
2022-10-17T00:18:50.206Z,79.06
2022-10-17T00:21:19.380Z,79.32
2022-10-17T00:23:47.493Z,79.56
2022-10-17T00:26:16.230Z,79.39
2022-10-17T00:28:47.890Z,79.42
2022-10-17T00:31:17.885Z,79.14
2022-10-17T00:33:46.094Z,78.79
2022-10-17T00:36:25.214Z,79.07
2022-10-17T00:38:55.754Z,79.33
2022-10-17T00:41:27.496Z,79.79
2022-10-17T00:44:03.167Z,79.28
2022-10-17T00:46:34.167Z,79.69
2022-10-17T00:49:10.973Z,79.48
2022-10-17T00:51:45.201Z,79.13
2022-10-17T00:54:15.131Z,79.32
2022-10-17T00:56:43.827Z,79.84
2022-10-17T00:59:13.828Z,79.66
2022-10-17T01:01:48.745Z,79.50
2022-10-17T01:04:17.471Z,79.77
2022-10-17T01:06:45.537Z,79.47
2022-10-17T01:09:13.289Z,78.89
2022-10-17T01:11:56.815Z,79.42
2022-10-17T01:14:40.467Z,79.65
2022-10-17T01:17:12.641Z,79.47
2022-10-17T01:20:05.315Z,79.75
2022-10-17T01:22:44.287Z,79.30
2022-10-17T01:25:27.491Z,79.20
2022-10-17T01:28:16.908Z,79.50
2022-10-17T01:31:01.606Z,79.78
2022-10-17T01:33:41.435Z,79.96
2022-10-17T01:36:15.564Z,79.68
2022-10-17T01:38:52.028Z,79.61
2022-10-17T01:41:44.096Z,79.65
2022-10-17T01:44:21.963Z,79.53
2022-10-17T01:49:31.276Z,80.26
2022-10-17T01:52:10.030Z,80.20
2022-10-17T01:54:42.904Z,79.97
2022-10-17T01:57:18.122Z,79.56
2022-10-17T01:59:48.900Z,79.41
2022-10-17T02:02:18.123Z,79.40
2022-10-17T02:04:47.747Z,79.58
2022-10-17T02:07:16.311Z,79.92
2022-10-17T02:09:43.981Z,79.93
2022-10-17T02:12:27.903Z,79.91
2022-10-17T02:15:15.858Z,79.74
2022-10-17T02:18:08.708Z,79.80
2022-10-17T02:20:48.978Z,79.70
2022-10-17T02:23:26.700Z,79.94
2022-10-17T02:26:11.333Z,80.28
2022-10-17T02:28:55.304Z,80.46
2022-10-17T02:31:28.735Z,80.16
2022-10-17T02:34:04.354Z,80.22
2022-10-17T02:36:38.879Z,80.14
2022-10-17T02:39:09.692Z,80.16
2022-10-17T02:41:40.135Z,80.27
2022-10-17T02:44:08.991Z,80.32
2022-10-17T02:46:38.781Z,80.29
2022-10-17T02:49:16.187Z,79.88
2022-10-17T02:52:01.293Z,79.99
2022-10-17T02:54:38.583Z,80.00
2022-10-17T02:57:41.406Z,80.10
2022-10-17T03:00:12.107Z,80.19
2022-10-17T03:02:46.482Z,80.05
2022-10-17T03:05:19.276Z,79.87
2022-10-17T03:07:47.226Z,79.76
2022-10-17T03:10:15.562Z,79.75
2022-10-17T03:12:43.290Z,79.82
2022-10-17T03:15:11.821Z,79.91
2022-10-17T03:17:39.606Z,80.28
2022-10-17T03:20:08.791Z,80.91
2022-10-17T03:22:36.556Z,80.98
2022-10-17T03:25:04.622Z,80.74
2022-10-17T03:27:35.424Z,80.60
2022-10-17T03:30:03.806Z,80.17
2022-10-17T03:32:33.844Z,80.41
2022-10-17T03:35:02.712Z,80.64
2022-10-17T03:37:30.576Z,80.87
2022-10-17T03:39:59.673Z,80.56
2022-10-17T03:42:27.297Z,80.70
2022-10-17T03:44:54.788Z,80.60
2022-10-17T03:47:23.420Z,80.45
2022-10-17T03:49:53.593Z,80.68
2022-10-17T03:52:21.705Z,80.91
2022-10-17T03:54:50.956Z,81.08
2022-10-17T03:57:19.025Z,80.79
2022-10-17T03:59:47.338Z,80.79
2022-10-17T04:02:17.723Z,80.68
2022-10-17T04:04:45.415Z,80.50
2022-10-17T04:07:12.933Z,80.67
2022-10-17T04:09:43.361Z,81.11
2022-10-17T04:12:20.529Z,81.03
2022-10-17T04:14:48.129Z,80.86
2022-10-17T04:17:15.833Z,80.71
2022-10-17T04:19:43.429Z,80.54
2022-10-17T04:22:11.023Z,80.25
2022-10-17T04:24:39.455Z,79.99
2022-10-17T04:27:10.333Z,80.28
2022-10-17T04:29:41.035Z,80.45
2022-10-17T04:32:21.172Z,80.43
2022-10-17T04:34:57.932Z,80.76
2022-10-17T04:37:25.577Z,80.57
2022-10-17T04:39:54.443Z,80.38
2022-10-17T04:42:22.282Z,80.12
2022-10-17T04:44:50.449Z,80.44
2022-10-17T04:47:18.339Z,80.83
2022-10-17T04:49:45.945Z,81.23
2022-10-17T04:52:14.423Z,81.25
2022-10-17T04:54:46.512Z,81.08
2022-10-17T04:57:14.788Z,80.98
2022-10-17T04:59:45.086Z,80.86
2022-10-17T05:02:26.438Z,80.88
2022-10-17T05:04:54.448Z,81.25
2022-10-17T05:07:22.048Z,81.80
2022-10-17T05:10:12.574Z,81.64
2022-10-17T05:12:41.892Z,81.30
2022-10-17T05:15:09.955Z,81.38
2022-10-17T05:17:37.588Z,81.17
2022-10-17T05:20:06.700Z,80.60
2022-10-17T05:22:38.241Z,81.20
2022-10-17T05:25:09.028Z,81.76
2022-10-17T05:27:36.550Z,82.06
2022-10-17T05:30:05.126Z,81.95
2022-10-17T05:32:34.382Z,81.94
2022-10-17T05:35:04.202Z,81.68
2022-10-17T05:37:32.734Z,81.75
2022-10-17T05:40:00.650Z,81.94
2022-10-17T05:42:29.830Z,81.97
2022-10-17T05:44:58.457Z,81.63
2022-10-17T05:47:26.941Z,82.01
2022-10-17T05:49:54.774Z,81.55
2022-10-17T05:52:30.581Z,81.71
2022-10-17T05:55:08.140Z,81.33
2022-10-17T05:57:35.756Z,81.56
2022-10-17T06:00:05.384Z,81.72
2022-10-17T06:02:43.175Z,81.58
2022-10-17T06:05:13.907Z,81.71
2022-10-17T06:07:41.540Z,81.49
2022-10-17T06:10:12.777Z,81.53
2022-10-17T06:12:40.625Z,81.07
2022-10-17T06:15:09.005Z,81.29
2022-10-17T06:17:36.849Z,81.69
2022-10-17T06:20:07.841Z,81.58
2022-10-17T06:22:35.427Z,81.42
2022-10-17T06:25:05.952Z,81.57
2022-10-17T06:27:33.478Z,81.32
2022-10-17T06:30:01.276Z,80.81
2022-10-17T06:32:30.459Z,81.02
2022-10-17T06:34:58.252Z,81.71
2022-10-17T06:37:26.099Z,81.14
2022-10-17T06:39:53.901Z,80.57
2022-10-17T06:42:23.289Z,80.53
2022-10-17T06:45:11.278Z,79.39
2022-10-17T06:47:59.084Z,78.93
2022-10-17T06:50:42.629Z,78.28
2022-10-17T06:53:22.883Z,77.98
2022-10-17T06:56:13.602Z,77.69
2022-10-17T06:59:01.327Z,77.60
2022-10-17T07:01:36.788Z,77.18
2022-10-17T07:04:05.410Z,76.39
2022-10-17T07:06:34.282Z,75.41
2022-10-17T07:09:07.775Z,74.81
2022-10-17T07:11:37.269Z,73.73
2022-10-17T07:14:04.804Z,71.93
2022-10-17T07:16:34.672Z,72.61
2022-10-17T07:19:15.374Z,71.27
2022-10-17T07:21:42.918Z,70.47
2022-10-17T07:24:12.110Z,70.71
2022-10-17T07:26:42.129Z,69.06
2022-10-17T07:29:09.930Z,69.19
2022-10-17T07:31:41.228Z,69.03
2022-10-17T07:34:08.816Z,69.27
2022-10-17T07:36:36.771Z,67.62
2022-10-17T07:39:06.117Z,67.18
2022-10-17T07:41:34.050Z,64.94
2022-10-17T07:44:01.604Z,65.01
2022-10-17T07:46:34.188Z,63.83
2022-10-17T07:49:01.755Z,62.82
2022-10-17T07:51:29.680Z,62.99
2022-10-17T07:53:57.196Z,62.65
2022-10-17T07:56:24.822Z,62.07
2022-10-17T07:58:53.223Z,59.10
2022-10-17T08:01:20.868Z,59.69
2022-10-17T08:15:51.005Z,58.19
2022-10-17T08:18:18.510Z,57.10
2022-10-17T08:20:46.079Z,56.52
2022-10-17T08:23:13.693Z,56.29
2022-10-17T08:25:41.207Z,54.65
2022-10-17T08:28:08.771Z,54.35
2022-10-17T08:30:36.304Z,53.64
2022-10-17T08:33:03.968Z,53.27
2022-10-17T08:35:31.626Z,53.26
2022-10-17T08:38:01.692Z,52.79
2022-10-17T08:40:33.656Z,52.56
2022-10-17T08:43:09.780Z,50.85
2022-10-17T08:45:53.839Z,49.64
2022-10-17T08:48:24.393Z,50.71
2022-10-17T08:50:56.498Z,49.75
2022-10-17T08:53:55.036Z,49.48
2022-10-17T08:56:44.504Z,48.76
2022-10-17T08:59:27.024Z,47.87
2022-10-17T09:02:02.818Z,48.11
2022-10-17T09:04:39.550Z,45.83
2022-10-17T09:07:16.078Z,46.68
2022-10-17T09:10:11.539Z,48.47
2022-10-17T09:12:50.575Z,46.66
2022-10-17T09:15:30.407Z,46.66
2022-10-17T09:18:04.129Z,45.52
2022-10-17T09:20:37.388Z,44.52
2022-10-17T09:23:20.082Z,44.20
2022-10-17T09:25:52.895Z,43.11
2022-10-17T09:28:36.025Z,42.64
2022-10-17T09:31:10.081Z,42.84
2022-10-17T09:33:58.965Z,42.29
2022-10-17T09:36:33.208Z,41.72
2022-10-17T09:39:08.260Z,41.65
2022-10-17T09:41:46.794Z,41.21
2022-10-17T09:44:29.340Z,41.21
2022-10-17T09:47:06.039Z,41.30
2022-10-17T09:49:39.873Z,40.35
2022-10-17T09:52:16.664Z,40.69
2022-10-17T09:54:48.106Z,40.07
2022-10-17T09:57:17.790Z,39.20
2022-10-17T10:00:00.355Z,39.60
2022-10-17T10:02:32.407Z,39.18
2022-10-17T10:05:07.577Z,40.06
2022-10-17T10:07:38.698Z,39.12
2022-10-17T10:10:22.728Z,39.52
2022-10-17T10:13:25.762Z,39.94
2022-10-17T10:15:53.748Z,41.10
2022-10-17T10:21:09.516Z,41.21
2022-10-17T10:23:45.379Z,41.43
2022-10-17T10:26:25.720Z,41.56
2022-10-17T10:29:06.592Z,41.45
2022-10-17T10:31:38.725Z,41.56
2022-10-17T10:34:20.493Z,41.73
2022-10-17T10:37:25.349Z,42.06
2022-10-17T10:39:59.300Z,42.71
2022-10-17T10:42:36.818Z,43.25
2022-10-17T10:45:29.206Z,43.54
2022-10-17T10:48:27.612Z,44.25
2022-10-17T10:51:04.360Z,43.91
2022-10-17T10:53:50.150Z,44.06
2022-10-17T10:56:22.531Z,44.10
2022-10-17T10:58:59.126Z,44.60
2022-10-17T11:01:35.214Z,44.83
2022-10-17T11:04:14.124Z,45.31
2022-10-17T11:06:44.391Z,45.70
2022-10-17T11:09:28.875Z,45.95
2022-10-17T11:12:06.079Z,45.83
2022-10-17T11:14:51.655Z,45.68
2022-10-17T11:17:25.282Z,45.90
2022-10-17T11:20:03.411Z,46.28
2022-10-17T11:22:34.526Z,45.78
2022-10-17T11:25:11.547Z,45.72
2022-10-17T11:27:39.094Z,46.25
2022-10-17T11:30:06.998Z,46.47
2022-10-17T11:32:44.354Z,46.90
2022-10-17T11:35:46.150Z,47.38
2022-10-17T11:38:27.188Z,47.60
2022-10-17T11:40:59.072Z,47.63
2022-10-17T11:43:40.300Z,47.61
2022-10-17T11:46:19.109Z,47.78
2022-10-17T11:49:38.201Z,47.83
2022-10-17T11:52:54.965Z,48.64
2022-10-17T11:55:26.085Z,47.69
2022-10-17T11:58:11.730Z,47.63
2022-10-17T12:00:58.002Z,47.68
2022-10-17T12:03:46.413Z,47.70
2022-10-17T12:06:35.268Z,47.95
2022-10-17T12:09:24.493Z,48.14
2022-10-17T12:11:59.139Z,48.05
2022-10-17T12:14:46.881Z,48.36
2022-10-17T12:17:23.232Z,48.93
2022-10-17T12:19:51.128Z,49.06
2022-10-17T12:22:22.506Z,49.33
2022-10-17T12:25:03.650Z,49.59
2022-10-17T12:27:46.263Z,49.97
2022-10-17T12:30:21.804Z,50.33
2022-10-17T12:33:06.692Z,50.66
2022-10-17T12:35:38.273Z,50.90
2022-10-17T12:38:18.377Z,50.63
2022-10-17T12:40:50.518Z,51.22
2022-10-17T12:43:18.037Z,51.14
2022-10-17T12:45:49.808Z,51.35
2022-10-17T12:48:42.091Z,51.36
2022-10-17T12:54:17.177Z,51.09
2022-10-17T12:56:48.009Z,51.80
2022-10-17T12:59:22.373Z,52.08
2022-10-17T13:01:54.931Z,52.47
2022-10-17T13:04:22.696Z,52.90
2022-10-17T13:06:56.275Z,53.18
2022-10-17T13:09:37.549Z,53.36
2022-10-17T13:12:13.977Z,53.55
2022-10-17T13:14:42.889Z,53.69
2022-10-17T13:17:29.395Z,53.91
2022-10-17T13:19:57.542Z,54.08
2022-10-17T13:22:28.592Z,54.22
2022-10-17T13:25:26.399Z,54.33
2022-10-17T13:28:05.918Z,54.52
2022-10-17T13:30:36.343Z,54.81
2022-10-17T13:33:18.908Z,54.90
2022-10-17T13:36:00.105Z,55.00
2022-10-17T13:38:32.644Z,55.68
2022-10-17T13:41:30.030Z,55.64
2022-10-17T13:43:50.951Z,55.46
2022-10-17T13:46:38.083Z,55.91
2022-10-17T13:49:15.412Z,56.13
2022-10-17T13:51:48.780Z,56.32
2022-10-17T13:54:36.079Z,56.43
2022-10-17T13:57:05.646Z,56.59
2022-10-17T13:59:40.932Z,56.58
2022-10-17T14:02:14.519Z,56.69
2022-10-17T14:05:11.714Z,56.77
2022-10-17T14:07:58.385Z,56.87
2022-10-17T14:10:26.863Z,57.04
2022-10-17T14:12:56.431Z,57.25
2022-10-17T14:15:29.309Z,57.71
2022-10-17T14:18:04.221Z,57.51
2022-10-17T14:21:08.075Z,57.54
2022-10-17T14:23:44.425Z,57.56
2022-10-17T14:26:21.498Z,57.96
2022-10-17T14:29:14.597Z,57.97
2022-10-17T14:31:42.129Z,58.16
2022-10-17T14:34:21.933Z,58.03
2022-10-17T14:36:52.162Z,58.45
2022-10-17T14:39:23.546Z,58.51
2022-10-17T14:41:52.171Z,58.85
2022-10-17T14:44:33.930Z,58.91
2022-10-17T14:47:30.192Z,58.72
2022-10-17T14:50:08.287Z,59.05
2022-10-17T14:52:36.411Z,59.09
2022-10-17T14:55:25.902Z,59.26
2022-10-17T14:57:53.745Z,59.55
2022-10-17T15:00:23.169Z,59.76
2022-10-17T15:02:52.872Z,60.01
2022-10-17T15:05:20.964Z,60.26
2022-10-17T15:07:49.031Z,60.47
2022-10-17T15:10:36.315Z,60.89
2022-10-17T15:13:26.634Z,61.47
2022-10-17T15:15:52.211Z,61.20
2022-10-17T15:18:19.985Z,61.45
2022-10-17T15:20:51.958Z,61.24
2022-10-17T15:23:27.400Z,61.92
2022-10-17T15:25:55.062Z,62.08
2022-10-17T15:28:22.671Z,62.20
2022-10-17T15:30:50.209Z,62.40
2022-10-17T15:33:17.730Z,62.92
2022-10-17T15:35:45.869Z,62.67
2022-10-17T15:38:20.282Z,63.24
2022-10-17T15:40:50.905Z,63.73
2022-10-17T15:43:19.883Z,63.70
2022-10-17T15:45:48.381Z,63.67
2022-10-17T15:48:20.208Z,63.84
2022-10-17T15:50:47.758Z,64.47
2022-10-17T15:53:15.443Z,64.74
2022-10-17T15:55:42.992Z,64.56
2022-10-17T15:58:16.188Z,64.73
2022-10-17T16:00:44.111Z,64.86
2022-10-17T16:03:11.740Z,64.83
2022-10-17T16:05:39.683Z,65.14
2022-10-17T16:08:07.222Z,65.55
2022-10-17T16:10:36.598Z,65.80
2022-10-17T16:13:04.152Z,65.63
2022-10-17T16:15:31.853Z,65.71
2022-10-17T16:18:01.681Z,66.04
2022-10-17T16:20:32.242Z,66.05
2022-10-17T16:23:02.878Z,66.03
2022-10-17T16:25:32.094Z,66.64
2022-10-17T16:28:00.779Z,67.45
2022-10-17T16:30:30.306Z,67.46
2022-10-17T16:32:57.954Z,67.31
2022-10-17T16:35:31.848Z,67.25
2022-10-17T16:38:02.598Z,67.38
2022-10-17T16:40:30.264Z,67.30
2022-10-17T16:42:57.906Z,67.73
2022-10-17T16:45:25.497Z,67.57
2022-10-17T16:47:53.507Z,67.75
2022-10-17T16:50:21.170Z,68.13
2022-10-17T16:52:48.804Z,67.92
2022-10-17T16:55:18.876Z,68.20
2022-10-17T16:57:48.761Z,68.86
2022-10-17T17:00:17.643Z,68.81
2022-10-17T17:02:47.920Z,68.91
2022-10-17T17:05:15.800Z,68.78
2022-10-17T17:07:43.409Z,68.91
2022-10-17T17:10:11.002Z,69.20
2022-10-17T17:12:38.563Z,69.04
2022-10-17T17:15:06.309Z,68.89
2022-10-17T17:17:49.707Z,69.23
2022-10-17T17:20:17.980Z,69.27
2022-10-17T17:22:45.581Z,69.71
2022-10-17T17:25:13.197Z,69.89
2022-10-17T17:27:41.065Z,69.79
2022-10-17T17:30:08.947Z,69.81
2022-10-17T17:32:36.453Z,69.81
2022-10-17T17:35:04.165Z,69.97
2022-10-17T17:37:32.039Z,69.87
2022-10-17T17:39:59.797Z,70.14
2022-10-17T17:42:27.512Z,70.14
2022-10-17T17:44:55.049Z,69.88
2022-10-17T17:47:22.630Z,70.09
2022-10-17T17:49:50.298Z,71.03
2022-10-17T17:52:17.819Z,71.14
2022-10-17T17:54:45.402Z,70.89
2022-10-17T17:57:13.087Z,70.72
2022-10-17T17:59:41.447Z,70.91
2022-10-17T18:02:10.711Z,70.73
2022-10-17T18:04:38.320Z,70.83
2022-10-17T18:07:05.960Z,70.83
2022-10-17T18:09:33.590Z,70.79
2022-10-17T18:12:01.226Z,70.96
2022-10-17T18:14:28.800Z,71.18
2022-10-17T18:16:56.378Z,71.54
2022-10-17T18:19:23.933Z,71.49
2022-10-17T18:21:51.621Z,71.77
2022-10-17T18:24:19.520Z,72.15
2022-10-17T18:26:47.042Z,72.09
2022-10-17T18:29:14.938Z,71.70
2022-10-17T18:31:42.952Z,71.93
2022-10-17T18:34:10.731Z,71.99
2022-10-17T18:36:38.496Z,72.36
2022-10-17T18:39:06.222Z,72.92
2022-10-17T18:41:34.025Z,73.34
2022-10-17T18:44:03.064Z,73.08
2022-10-17T18:46:40.943Z,73.14
2022-10-17T18:49:11.039Z,73.00
2022-10-17T18:51:38.804Z,72.87
2022-10-17T18:54:11.948Z,73.63
2022-10-17T18:56:39.759Z,73.15
2022-10-17T18:59:07.337Z,73.50
2022-10-17T19:01:35.532Z,74.10
2022-10-17T19:04:03.403Z,74.45
2022-10-17T19:06:32.146Z,74.26
2022-10-17T19:09:03.425Z,74.69
2022-10-17T19:11:33.105Z,74.42
2022-10-17T19:14:02.914Z,74.00
2022-10-17T19:16:37.167Z,74.17
2022-10-17T19:19:07.822Z,74.73
2022-10-17T19:21:35.654Z,75.08
2022-10-17T19:24:06.788Z,75.20
2022-10-17T19:26:36.093Z,74.98
2022-10-17T19:29:04.326Z,74.86
2022-10-17T19:31:33.705Z,74.93
2022-10-17T19:34:01.361Z,74.49
2022-10-17T19:36:33.371Z,74.50
2022-10-17T19:39:05.091Z,74.85
2022-10-17T19:41:33.068Z,74.96
2022-10-17T19:44:01.145Z,75.64
2022-10-17T19:46:31.507Z,75.08
2022-10-17T19:48:59.235Z,75.55
2022-10-17T19:51:27.536Z,75.15
2022-10-17T19:53:56.573Z,75.45
2022-10-17T19:56:24.908Z,75.68
2022-10-17T19:58:54.115Z,75.63
2022-10-17T20:01:25.127Z,76.27
2022-10-17T20:03:53.827Z,76.78
2022-10-17T20:06:22.442Z,76.01
2022-10-17T20:08:50.710Z,76.34
2022-10-17T20:11:21.479Z,76.07
2022-10-17T20:13:49.467Z,76.19
2022-10-17T20:16:21.381Z,76.38
2022-10-17T20:18:50.656Z,76.30
2022-10-17T20:21:19.923Z,76.62
2022-10-17T20:23:47.957Z,76.55
2022-10-17T20:26:26.254Z,76.18
2022-10-17T20:29:08.510Z,76.29
2022-10-17T20:31:36.961Z,76.14
2022-10-17T20:34:04.565Z,75.86
2022-10-17T20:36:36.795Z,75.82
2022-10-17T20:39:06.097Z,75.77
2022-10-17T20:41:34.460Z,75.88
2022-10-17T20:44:02.529Z,75.94
2022-10-17T20:46:36.771Z,75.94
2022-10-17T20:49:07.421Z,75.32
2022-10-17T20:51:36.318Z,74.85
2022-10-17T20:54:04.700Z,74.59
2022-10-17T20:56:33.910Z,74.49
2022-10-17T20:59:06.830Z,74.36
2022-10-17T21:01:35.636Z,74.26
2022-10-17T21:04:33.288Z,74.10
2022-10-17T21:06:53.337Z,74.47
2022-10-17T21:09:21.951Z,74.76
2022-10-17T21:11:52.547Z,74.57
2022-10-17T21:14:20.592Z,74.14
2022-10-17T21:16:48.790Z,74.07
2022-10-17T21:19:16.570Z,74.08
2022-10-17T21:21:46.609Z,74.12
2022-10-17T21:24:17.836Z,74.07
2022-10-17T21:26:47.111Z,74.35
2022-10-17T21:29:15.142Z,74.76
2022-10-17T21:31:44.080Z,75.07
2022-10-17T21:34:18.399Z,75.51
2022-10-17T21:36:46.421Z,75.32
2022-10-17T21:39:15.186Z,74.78
2022-10-17T21:41:43.792Z,74.57
2022-10-17T21:44:14.623Z,74.11
2022-10-17T21:46:42.960Z,73.84
2022-10-17T21:49:15.426Z,73.62
2022-10-17T21:51:44.059Z,73.15
2022-10-17T21:54:11.959Z,72.85
2022-10-17T21:56:40.228Z,72.29
2022-10-17T21:59:08.737Z,71.47
2022-10-17T22:01:42.191Z,71.03
2022-10-17T22:04:18.121Z,70.34
2022-10-17T22:06:47.166Z,69.49
2022-10-17T22:09:21.458Z,69.17
2022-10-17T22:11:52.187Z,68.65
2022-10-17T22:14:21.274Z,67.97
2022-10-17T22:16:49.622Z,67.87
2022-10-17T22:19:20.641Z,67.70
2022-10-17T22:21:49.145Z,67.60
2022-10-17T22:24:18.900Z,67.24
2022-10-17T22:26:47.299Z,67.12
2022-10-17T22:29:15.545Z,67.25
2022-10-17T22:31:43.518Z,66.95
2022-10-17T22:34:13.398Z,67.16
2022-10-17T22:36:41.442Z,66.96
2022-10-17T22:39:09.410Z,66.99
2022-10-17T22:41:37.011Z,66.78
2022-10-17T22:44:05.160Z,66.80
2022-10-17T22:46:32.749Z,66.68
2022-10-17T22:49:00.517Z,66.51
2022-10-17T22:51:28.960Z,66.61
2022-10-17T22:53:56.726Z,67.04
2022-10-17T22:56:24.537Z,66.90
2022-10-17T22:58:52.227Z,66.78
2022-10-17T23:01:22.660Z,66.67
2022-10-17T23:03:51.956Z,66.31
2022-10-17T23:06:19.794Z,65.87
2022-10-17T23:08:48.182Z,65.59
2022-10-17T23:11:16.564Z,65.70
2022-10-17T23:13:44.222Z,65.55
2022-10-17T23:16:12.226Z,65.59
2022-10-17T23:18:39.840Z,65.41
2022-10-17T23:21:07.724Z,65.40
2022-10-17T23:23:36.048Z,65.51
2022-10-17T23:26:10.740Z,65.51
2022-10-17T23:28:39.325Z,65.47
2022-10-17T23:31:18.360Z,65.33
2022-10-17T23:33:47.801Z,65.51
2022-10-17T23:36:17.302Z,65.72
2022-10-17T23:38:45.964Z,65.36
2022-10-17T23:41:14.692Z,65.42
2022-10-17T23:43:42.521Z,65.11
2022-10-17T23:46:10.484Z,65.33
2022-10-17T23:48:39.077Z,65.46
2022-10-17T23:51:07.466Z,65.42
2022-10-17T23:53:36.127Z,65.43
2022-10-17T23:56:04.647Z,65.36
2022-10-17T23:58:32.995Z,65.20
